MAPA DE AEROPUERTO

INFORMACIÓN METAR y TAF

METAR FOR GCGM
ADDS - METARS form results

(0809 UTC 05 December 2020)
Data provider http://aviationweather.gov/metar/data/
 
METAR text: GCGM 050800Z VRB03KT 9999 FEW030 17/09 Q1019 RMK R09/32008KT 270V350 ARP/35008KT
Conditions at: GCGM (LA GOMERA ARPT , ES) observed 0800 UTC 05 December 2020
Temperature: 17.0°C (63°F)
Dewpoint: 9.0°C (48°F) [RH = 59%]
Pressure (altimeter): 30.09 inches Hg (1019.0 mb)
Winds: variable direction winds at 3 MPH (3 knots; 1.5 m/s)
Visibility: 6 or more miles (10+ km)
Ceiling: at least 12,000 feet AGL
Clouds: few clouds at 3000 feet AGL
Weather: no significant weather observed at this time

METAR text: GCGM 050730Z VRB06KT 9999 FEW030 17/09 Q1019 RMK R09/VRB04KT ARP/06005KT 320V120
Conditions at: GCGM (LA GOMERA ARPT , ES) observed 0730 UTC 05 December 2020
Temperature: 17.0°C (63°F)
Dewpoint: 9.0°C (48°F) [RH = 59%]
Pressure (altimeter): 30.09 inches Hg (1019.0 mb)
Winds: variable direction winds at 7 MPH (6 knots; 3.1 m/s)
Visibility: 6 or more miles (10+ km)
Ceiling: at least 12,000 feet AGL
Clouds: few clouds at 3000 feet AGL
Weather: no significant weather observed at this time

Forecast for: GCGM (LA GOMERA ARPT , ES)
Text: TAF GCGM 050200Z 0503/0603 33007KT 9999 SCT040 TX21/0514Z TN16/0507Z
Forecast period: 0300 UTC 05 December 2020 to 0300 UTC 06 December 2020
Forecast type: FROM: standard forecast or significant change
Winds: from the NNW (330 degrees) at 8 MPH (7 knots; 3.6 m/s)
Visibility: 6 or more miles (10+ km)
Ceiling: at least 12,000 feet AGL
Clouds: scattered clouds at 4000 feet AGL
Weather: no significant weather forecast for this period
Text: PROB30
Forecast period: 1100 UTC 05 December 2020 to 0000 UTC 06 December 2020
Forecast type: TEMPORARY: The following changes expected for less than half the time period
Winds: from the N (10 degrees) at 21 MPH (18 knots; 9.3 m/s)
gusting to 32 MPH (28 knots; 14.4 m/s)
Visibility: missing
Ceiling: unknown
Clouds: missing
Weather: no significant weather forecast for this period